Forest Hill, Louisiana
Current Conditions -  °F | °C
As of 4:53 AM on Friday 28 Nov 2014 (Local Time) from KAEX Reporting Station
Clear Clear  
Wind Chill: 34°   Ceiling: Unl
Heat Index: 34°   Visibility: 8mi
Dew Point: 32°   Wind: 3mph
Humidity: 92%   Direction: 190°S
Pressure: 30.4"   Gusts: NA
Location:  31.04°N, 92.53°W
Report Text: KAEX 281053Z 19003KT 8SM CLR 01/00 A3040 RMK AO2 SLP298 T00110000
Loading
Personal Weather Stations






























Interactive Weather Map New forecast layout! Learn more

10-Day Weather Forecast

Advertisements
Track Severe Weather on mobile